Time;durP1;ratioP1;P1;durP2;ratioP2;P2;SDS_P1;SDS_P2;PMS_P1;PMS_P2;Temp;Humidity;BMP_temperature;BMP_pressure;BME280_temperature;BME280_humidity;BME280_pressure;Samples;Min_cycle;Max_cycle;Signal;HPM_P1;HPM_P2
2023/09/12 00:00:41;;;;;;;7.70;4.35;;;21.80;99.90;;;;;;4102066;28;20768;-82
2023/09/12 00:02:41;;;;;;;13.57;5.05;;;21.90;99.90;;;;;;4117499;28;20317;-82
2023/09/12 00:04:42;;;;;;;9.82;5.10;;;21.90;99.90;;;;;;4101612;29;20243;-82
2023/09/12 00:06:43;;;;;;;13.70;5.70;;;21.90;99.90;;;;;;4118933;28;20228;-86
2023/09/12 00:08:43;;;;;;;12.35;6.95;;;21.90;99.90;;;;;;4117656;28;20185;-82
2023/09/12 00:10:44;;;;;;;10.90;5.57;;;22.00;99.90;;;;;;4117617;28;20186;-93
2023/09/12 00:12:45;;;;;;;14.02;6.50;;;22.10;99.90;;;;;;4101543;28;20708;-81
2023/09/12 00:14:46;;;;;;;14.68;6.97;;;21.80;99.90;;;;;;4117660;28;20640;-81
2023/09/12 00:16:47;;;;;;;12.18;6.07;;;21.80;99.90;;;;;;4101463;28;20735;-82
2023/09/12 00:18:47;;;;;;;13.82;6.30;;;21.80;99.90;;;;;;4117670;28;20186;-82
2023/09/12 00:20:49;;;;;;;10.68;6.43;;;21.70;99.90;;;;;;4117626;28;20186;-82
2023/09/12 00:22:49;;;;;;;13.60;5.68;;;21.80;99.90;;;;;;4117435;28;20209;-81
2023/09/12 00:24:50;;;;;;;11.80;6.22;;;21.70;99.90;;;;;;4117518;28;20692;-88
2023/09/12 00:26:51;;;;;;;13.18;6.03;;;21.70;99.90;;;;;;4117416;28;20190;-82
2023/09/12 00:28:52;;;;;;;16.67;6.70;;;21.90;99.90;;;;;;4101413;28;20178;-94
2023/09/12 00:30:53;;;;;;;11.23;5.72;;;21.80;99.90;;;;;;4117483;28;20225;-82
2023/09/12 00:32:54;;;;;;;13.93;6.32;;;21.50;99.90;;;;;;4117373;28;20697;-82
2023/09/12 00:34:54;;;;;;;12.35;5.53;;;21.50;99.90;;;;;;4101514;29;20277;-82
2023/09/12 00:36:55;;;;;;;9.57;5.72;;;21.50;99.90;;;;;;4118441;28;20520;-82
2023/09/12 00:38:56;;;;;;;13.43;6.38;;;21.60;99.90;;;;;;4118486;28;20189;-82
2023/09/12 00:40:57;;;;;;;14.25;6.93;;;21.70;99.90;;;;;;4101371;28;20181;-82
2023/09/12 00:42:59;;;;;;;11.18;5.63;;;21.80;99.90;;;;;;4118419;28;20237;-82
2023/09/12 00:44:59;;;;;;;11.25;5.45;;;21.90;99.90;;;;;;4101202;28;20175;-83
2023/09/12 00:47:02;;;;;;;12.57;5.20;;;21.80;99.90;;;;;;4117122;28;20682;-83
2023/09/12 00:49:05;;;;;;;11.00;5.28;;;21.90;99.90;;;;;;4101092;28;20179;-82
2023/09/12 00:51:06;;;;;;;14.35;6.15;;;21.90;99.90;;;;;;4116311;28;20274;-82
2023/09/12 00:53:08;;;;;;;12.00;5.60;;;21.80;99.90;;;;;;4118326;28;20211;-93
2023/09/12 00:55:09;;;;;;;12.98;5.53;;;21.70;99.90;;;;;;4118413;28;20202;-82
2023/09/12 00:57:10;;;;;;;13.20;6.68;;;21.60;99.90;;;;;;4117133;28;20206;-82
2023/09/12 00:59:11;;;;;;;11.10;6.15;;;21.60;99.90;;;;;;4101171;29;20617;-82
2023/09/12 01:01:12;;;;;;;11.23;5.85;;;21.70;99.90;;;;;;4118122;28;20194;-82
2023/09/12 01:03:13;;;;;;;9.45;5.47;;;21.70;99.90;;;;;;4116847;28;20550;-82
2023/09/12 01:05:14;;;;;;;14.02;6.30;;;21.70;99.90;;;;;;4117974;28;20182;-82
2023/09/12 01:07:15;;;;;;;13.27;6.03;;;21.70;99.90;;;;;;4116928;28;20183;-94
2023/09/12 01:09:17;;;;;;;12.18;5.80;;;21.60;99.90;;;;;;4116738;28;20185;-82
2023/09/12 01:11:19;;;;;;;9.80;5.63;;;21.50;99.90;;;;;;4100733;28;20187;-82
2023/09/12 01:13:21;;;;;;;16.15;7.00;;;21.50;99.90;;;;;;4116489;28;20206;-82
2023/09/12 01:15:21;;;;;;;12.65;6.05;;;21.50;99.90;;;;;;4116770;28;20194;-82
2023/09/12 01:17:24;;;;;;;8.88;4.90;;;21.40;99.90;;;;;;4116782;28;20210;-82
2023/09/12 01:19:24;;;;;;;12.98;6.40;;;21.30;99.90;;;;;;4118049;28;20181;-82
2023/09/12 01:21:44;;;;;;;10.35;5.10;;;21.20;99.90;;;;;;4100762;28;20634;-83
2023/09/12 01:24:04;;;;;;;10.15;5.88;;;21.20;99.90;;;;;;4116534;28;20628;-83
2023/09/12 01:26:27;;;;;;;11.40;5.32;;;20.90;99.90;;;;;;4100514;28;20716;-83
2023/09/12 01:28:31;;;;;;;11.63;5.90;;;20.90;99.90;;;;;;4116530;28;20276;-92
2023/09/12 01:30:33;;;;;;;13.05;6.47;;;20.80;99.90;;;;;;4116702;28;20294;-83
2023/09/12 01:32:35;;;;;;;13.05;5.43;;;20.90;99.90;;;;;;4117707;28;20202;-92
2023/09/12 01:34:36;;;;;;;12.68;6.32;;;20.80;99.90;;;;;;4117641;28;20174;-82
2023/09/12 01:36:37;;;;;;;16.15;6.60;;;20.90;99.90;;;;;;4100614;28;20649;-89
2023/09/12 01:38:38;;;;;;;13.15;5.40;;;20.80;99.90;;;;;;4116287;28;20742;-82
2023/09/12 01:40:46;;;;;;;10.38;5.53;;;20.90;99.90;;;;;;4116349;28;20186;-82
2023/09/12 01:42:48;;;;;;;11.30;5.63;;;20.90;99.90;;;;;;4100115;28;20542;-95
2023/09/12 01:44:56;;;;;;;8.65;4.72;;;20.80;99.90;;;;;;4116221;28;20589;-94
2023/09/12 01:47:02;;;;;;;11.63;5.65;;;20.80;99.90;;;;;;4116296;28;20190;-83
2023/09/12 01:49:05;;;;;;;9.13;4.82;;;20.70;99.90;;;;;;4100464;28;20696;-83
2023/09/12 01:51:07;;;;;;;13.48;6.35;;;20.70;99.90;;;;;;4117615;28;20576;-83
2023/09/12 01:53:07;;;;;;;9.43;4.95;;;20.70;99.90;;;;;;4116108;28;20206;-82
2023/09/12 01:55:10;;;;;;;12.70;5.65;;;20.60;99.90;;;;;;4116471;28;20605;-82
2023/09/12 01:57:12;;;;;;;11.60;5.53;;;20.60;99.90;;;;;;4116040;28;20644;-92
2023/09/12 01:59:13;;;;;;;12.80;5.15;;;20.60;99.90;;;;;;4099896;28;20258;-82
2023/09/12 02:01:14;;;;;;;12.93;6.07;;;20.40;99.90;;;;;;4115937;28;20201;-82
2023/09/12 02:03:15;;;;;;;11.85;5.15;;;20.40;99.90;;;;;;4115938;28;20202;-84
2023/09/12 02:05:18;;;;;;;12.48;5.50;;;20.30;99.90;;;;;;4100772;28;20229;-82
2023/09/12 02:07:20;;;;;;;13.15;5.90;;;20.40;99.90;;;;;;4115964;28;20190;-82
2023/09/12 02:09:21;;;;;;;11.15;4.70;;;20.40;99.90;;;;;;4117388;28;20618;-93
2023/09/12 02:11:22;;;;;;;9.82;5.28;;;20.50;99.90;;;;;;4100019;28;20187;-82
2023/09/12 02:13:23;;;;;;;11.50;5.68;;;20.50;99.90;;;;;;4099517;28;20203;-83
2023/09/12 02:15:23;;;;;;;15.13;5.93;;;20.50;99.90;;;;;;4115772;28;20178;-91
2023/09/12 02:17:24;;;;;;;15.90;6.60;;;20.40;99.90;;;;;;4116026;28;20275;-82
2023/09/12 02:19:25;;;;;;;9.85;4.95;;;20.40;99.90;;;;;;4115891;28;20178;-82
2023/09/12 02:21:25;;;;;;;12.82;5.65;;;20.30;99.90;;;;;;4099647;29;20187;-82
2023/09/12 02:23:26;;;;;;;10.85;5.82;;;20.30;99.90;;;;;;4115422;28;20202;-82
2023/09/12 02:25:27;;;;;;;12.98;5.65;;;20.30;99.90;;;;;;4115598;28;20269;-81
2023/09/12 02:27:27;;;;;;;10.48;4.90;;;20.40;99.90;;;;;;4115768;28;20179;-82
2023/09/12 02:29:28;;;;;;;12.60;5.35;;;20.40;99.90;;;;;;4115597;28;20237;-82
2023/09/12 02:31:29;;;;;;;12.57;6.00;;;20.30;99.90;;;;;;4115790;28;20179;-82
2023/09/12 02:33:30;;;;;;;12.85;5.90;;;20.20;99.90;;;;;;4115409;28;20198;-82
2023/09/12 02:35:30;;;;;;;11.05;5.68;;;20.30;99.90;;;;;;4115618;28;20193;-94
2023/09/12 02:37:31;;;;;;;10.65;5.72;;;20.40;99.90;;;;;;4116536;28;20214;-82
2023/09/12 02:39:32;;;;;;;10.95;5.50;;;20.50;99.90;;;;;;4099458;28;20654;-82
2023/09/12 02:41:33;;;;;;;10.32;5.50;;;20.50;99.90;;;;;;4116648;28;20522;-94
2023/09/12 02:43:34;;;;;;;11.10;5.40;;;20.50;99.90;;;;;;4115397;28;20233;-95
2023/09/12 02:45:34;;;;;;;8.77;5.18;;;20.40;99.90;;;;;;4099381;28;20187;-92
2023/09/12 02:47:35;;;;;;;10.75;5.28;;;20.40;99.90;;;;;;4115386;28;20186;-83
2023/09/12 02:49:36;;;;;;;11.05;5.75;;;20.40;99.90;;;;;;4115376;28;20210;-82
2023/09/12 02:51:40;;;;;;;10.30;5.30;;;20.40;99.90;;;;;;4115154;28;20233;-82
2023/09/12 02:53:40;;;;;;;9.75;4.93;;;20.40;99.90;;;;;;4114965;28;20198;-82
2023/09/12 02:55:42;;;;;;;11.50;5.70;;;20.50;99.90;;;;;;4115239;28;20197;-82
2023/09/12 02:57:44;;;;;;;13.85;6.00;;;20.50;99.90;;;;;;4099320;29;20218;-83
2023/09/12 02:59:44;;;;;;;12.32;6.38;;;20.50;99.90;;;;;;4099364;28;20202;-82
2023/09/12 03:01:45;;;;;;;11.43;5.38;;;20.50;99.90;;;;;;4115169;28;20194;-83
2023/09/12 03:03:50;;;;;;;13.35;5.22;;;20.50;99.90;;;;;;4116393;28;20199;-82
2023/09/12 03:06:02;;;;;;;12.18;5.28;;;20.60;99.90;;;;;;4114961;28;20194;-94
2023/09/12 03:08:03;;;;;;;8.68;4.97;;;20.50;99.90;;;;;;4099278;28;20182;-83
2023/09/12 03:10:05;;;;;;;14.60;6.10;;;20.50;99.90;;;;;;4115227;28;20182;-82
2023/09/12 03:12:06;;;;;;;13.00;5.82;;;20.50;99.90;;;;;;4099569;28;20202;-82
2023/09/12 03:14:07;;;;;;;10.93;5.50;;;20.50;99.90;;;;;;4118375;28;20202;-82
2023/09/12 03:16:14;;;;;;;10.45;4.80;;;20.60;99.90;;;;;;4104645;28;20178;-82
2023/09/12 03:18:14;;;;;;;12.10;5.57;;;20.70;99.90;;;;;;4104528;29;20222;-94
2023/09/12 03:20:15;;;;;;;14.20;5.97;;;20.60;99.90;;;;;;4104483;28;20265;-92
2023/09/12 03:22:16;;;;;;;10.63;5.50;;;20.70;99.90;;;;;;4120357;28;20755;-83
2023/09/12 03:24:18;;;;;;;11.45;5.57;;;20.70;99.90;;;;;;4104358;29;20175;-95
2023/09/12 03:26:19;;;;;;;11.85;5.30;;;20.70;99.90;;;;;;4104364;28;20584;-83
2023/09/12 03:28:20;;;;;;;9.15;5.43;;;20.80;99.90;;;;;;4104505;28;20545;-82
2023/09/12 03:30:21;;;;;;;10.55;5.35;;;20.80;99.90;;;;;;4120243;28;20181;-93
2023/09/12 03:32:22;;;;;;;9.63;4.32;;;20.70;99.90;;;;;;4104261;28;20678;-82
2023/09/12 03:34:23;;;;;;;12.35;5.60;;;20.80;99.90;;;;;;4120536;28;20178;-82
2023/09/12 03:36:23;;;;;;;10.10;5.13;;;20.80;99.90;;;;;;4120485;28;20633;-83
2023/09/12 03:38:24;;;;;;;8.27;4.43;;;20.80;99.90;;;;;;4104203;29;20775;-82
2023/09/12 03:40:25;;;;;;;11.75;5.47;;;20.80;99.90;;;;;;4120308;28;20174;-82
2023/09/12 03:42:26;;;;;;;12.77;5.28;;;20.80;99.90;;;;;;4104406;28;20589;-82
2023/09/12 03:44:27;;;;;;;10.07;5.35;;;20.90;99.90;;;;;;4121303;28;20171;-82
2023/09/12 03:46:28;;;;;;;11.85;5.40;;;20.90;99.90;;;;;;4104429;29;20275;-83
2023/09/12 03:48:30;;;;;;;10.60;5.15;;;20.90;99.90;;;;;;4121486;28;20178;-82
2023/09/12 03:50:31;;;;;;;9.05;5.05;;;21.00;99.90;;;;;;4104166;28;20186;-82
2023/09/12 03:52:32;;;;;;;10.88;4.95;;;21.00;99.90;;;;;;4119998;28;20213;-82
2023/09/12 03:54:32;;;;;;;11.82;5.43;;;20.90;99.90;;;;;;4121310;28;20218;-82
2023/09/12 03:56:33;;;;;;;10.05;5.55;;;20.80;99.90;;;;;;4120376;28;20648;-94
2023/09/12 03:58:34;;;;;;;10.23;4.65;;;20.70;99.90;;;;;;4121185;28;20615;-90
2023/09/12 04:00:35;;;;;;;11.68;5.70;;;20.60;99.90;;;;;;4103908;28;20649;-82
2023/09/12 04:02:36;;;;;;;10.95;5.03;;;20.60;99.90;;;;;;4104200;28;20395;-92
2023/09/12 04:04:36;;;;;;;12.48;5.68;;;20.60;99.90;;;;;;4120233;28;20174;-83
2023/09/12 04:06:37;;;;;;;11.57;5.68;;;20.60;99.90;;;;;;4120405;28;20229;-83
2023/09/12 04:08:38;;;;;;;10.80;5.40;;;20.60;99.90;;;;;;4104183;28;20541;-83
2023/09/12 04:10:39;;;;;;;9.50;5.18;;;20.50;99.90;;;;;;4120189;28;20604;-82
2023/09/12 04:12:40;;;;;;;13.13;5.47;;;20.40;99.90;;;;;;4103932;29;20219;-82
2023/09/12 04:14:40;;;;;;;11.40;5.55;;;20.50;99.90;;;;;;4121052;28;20294;-82
2023/09/12 04:16:41;;;;;;;11.18;5.43;;;20.60;99.90;;;;;;4120094;28;20656;-82
2023/09/12 04:18:42;;;;;;;11.60;4.47;;;20.70;99.90;;;;;;4119906;28;20247;-82
2023/09/12 04:20:43;;;;;;;14.48;5.88;;;20.60;99.90;;;;;;4119880;28;20193;-83
2023/09/12 04:22:44;;;;;;;13.45;5.85;;;20.50;99.90;;;;;;4119955;28;20733;-82
2023/09/12 04:24:45;;;;;;;12.43;4.93;;;20.40;99.90;;;;;;4118931;28;20174;-82
2023/09/12 04:26:45;;;;;;;11.48;5.70;;;20.40;99.90;;;;;;4116869;28;20671;-82
2023/09/12 04:28:50;;;;;;;10.77;5.03;;;20.50;99.90;;;;;;4101214;29;20243;-82
2023/09/12 04:30:50;;;;;;;8.70;4.97;;;20.50;99.90;;;;;;4101484;28;20183;-82
2023/09/12 04:32:51;;;;;;;12.30;5.47;;;20.50;99.90;;;;;;4101228;29;20262;-83
2023/09/12 04:34:52;;;;;;;10.13;5.30;;;20.70;99.90;;;;;;4117327;28;20225;-82
2023/09/12 04:36:54;;;;;;;10.73;5.13;;;20.80;99.90;;;;;;4101232;29;20274;-83
2023/09/12 04:38:55;;;;;;;10.23;4.88;;;20.70;99.90;;;;;;4117400;28;20651;-88
2023/09/12 04:41:06;;;;;;;10.32;4.88;;;20.60;99.90;;;;;;4101375;29;20179;-82
2023/09/12 04:43:07;;;;;;;12.00;5.38;;;20.50;99.90;;;;;;4118612;28;20688;-82
2023/09/12 04:45:08;;;;;;;9.65;5.07;;;20.40;99.90;;;;;;4117332;28;20170;-82
2023/09/12 04:47:09;;;;;;;8.90;4.53;;;20.30;99.90;;;;;;4101035;28;20266;-82
2023/09/12 04:49:10;;;;;;;13.57;4.97;;;20.20;99.90;;;;;;4117323;28;20236;-82
2023/09/12 04:51:11;;;;;;;13.38;4.90;;;20.10;99.90;;;;;;4101002;29;20684;-95
2023/09/12 04:53:12;;;;;;;9.15;5.20;;;20.10;99.90;;;;;;4117135;28;20229;-82
2023/09/12 04:55:13;;;;;;;10.40;5.03;;;20.20;99.90;;;;;;4117061;28;20194;-82
2023/09/12 04:57:14;;;;;;;10.95;4.85;;;20.10;99.90;;;;;;4117159;28;20633;-82
2023/09/12 04:59:14;;;;;;;9.80;5.38;;;20.10;99.90;;;;;;4100957;29;20724;-86
2023/09/12 05:01:16;;;;;;;9.48;5.03;;;20.10;99.90;;;;;;4101246;29;20179;-82
2023/09/12 05:03:17;;;;;;;9.93;5.38;;;20.10;99.90;;;;;;4116835;28;20205;-82
2023/09/12 05:05:18;;;;;;;9.02;4.55;;;20.10;99.90;;;;;;4118162;28;20286;-82
2023/09/12 05:07:18;;;;;;;8.60;4.55;;;20.00;99.90;;;;;;4100966;29;20211;-82
2023/09/12 05:09:19;;;;;;;11.40;5.10;;;19.90;99.90;;;;;;4100827;28;20187;-82
2023/09/12 05:11:23;;;;;;;8.77;4.53;;;19.90;99.90;;;;;;4100952;29;20183;-82
2023/09/12 05:13:24;;;;;;;9.07;4.53;;;20.00;99.90;;;;;;4100960;28;20210;-82
2023/09/12 05:15:24;;;;;;;10.93;5.15;;;20.00;99.90;;;;;;4100747;28;20220;-82
2023/09/12 05:17:25;;;;;;;9.82;4.57;;;20.00;99.90;;;;;;4116907;28;20688;-82
2023/09/12 05:19:26;;;;;;;8.07;4.45;;;19.90;99.90;;;;;;4100841;28;20183;-82
2023/09/12 05:21:27;;;;;;;14.43;5.47;;;20.00;99.90;;;;;;4116998;28;20241;-83
2023/09/12 05:23:28;;;;;;;9.27;4.65;;;20.00;99.90;;;;;;4116600;28;20284;-83
2023/09/12 05:25:29;;;;;;;9.35;4.47;;;20.00;99.90;;;;;;4100733;29;20179;-95
2023/09/12 05:27:30;;;;;;;10.52;5.00;;;19.90;99.90;;;;;;4116587;28;20237;-82
2023/09/12 05:29:31;;;;;;;9.93;4.90;;;19.90;99.90;;;;;;4116492;28;20269;-83
2023/09/12 05:31:32;;;;;;;9.43;4.43;;;19.90;99.90;;;;;;4100674;29;20578;-94
2023/09/12 05:33:33;;;;;;;9.23;4.85;;;19.80;99.90;;;;;;4118037;28;20719;-95
2023/09/12 05:35:33;;;;;;;12.65;5.35;;;19.80;99.90;;;;;;4100568;28;20601;-83
2023/09/12 05:37:34;;;;;;;14.05;5.30;;;19.80;99.90;;;;;;4099973;28;20593;-95
2023/09/12 05:39:35;;;;;;;9.90;5.85;;;19.80;99.90;;;;;;4100203;29;20266;-93
2023/09/12 05:41:36;;;;;;;8.35;4.50;;;19.90;99.90;;;;;;4117005;28;20175;-90
2023/09/12 05:43:37;;;;;;;14.70;6.10;;;19.90;99.90;;;;;;4116345;28;20202;-82
2023/09/12 05:45:38;;;;;;;10.70;5.40;;;20.10;99.90;;;;;;4100447;28;20295;-83
2023/09/12 05:47:39;;;;;;;12.48;5.80;;;20.10;99.90;;;;;;4116216;28;20186;-83
2023/09/12 05:49:40;;;;;;;9.52;5.13;;;20.00;99.90;;;;;;4099988;28;20186;-83
2023/09/12 05:51:42;;;;;;;11.10;5.20;;;20.00;99.90;;;;;;4116215;28;20676;-88
2023/09/12 05:53:43;;;;;;;10.88;5.53;;;20.00;99.90;;;;;;4116143;28;20202;-82
2023/09/12 05:55:44;;;;;;;12.38;5.80;;;20.00;99.90;;;;;;4116132;28;20194;-82
2023/09/12 05:57:47;;;;;;;10.15;5.43;;;20.10;99.90;;;;;;4116497;28;20891;-82
2023/09/12 05:59:48;;;;;;;10.20;5.35;;;20.10;99.90;;;;;;4100208;29;20233;-82
2023/09/12 06:01:49;;;;;;;13.48;5.90;;;20.10;99.90;;;;;;4115955;28;20210;-90
2023/09/12 06:03:49;;;;;;;13.65;5.88;;;20.10;99.90;;;;;;4100121;28;20238;-82
2023/09/12 06:05:50;;;;;;;12.93;5.85;;;20.20;99.90;;;;;;4116209;28;20201;-94
2023/09/12 06:07:51;;;;;;;11.98;5.60;;;20.20;99.90;;;;;;4116386;28;20601;-93
2023/09/12 06:09:52;;;;;;;11.63;5.55;;;20.20;99.90;;;;;;4116145;28;20177;-84
2023/09/12 06:11:53;;;;;;;9.43;5.07;;;20.30;99.90;;;;;;4115987;28;20187;-83
2023/09/12 06:13:54;;;;;;;10.18;4.95;;;20.30;99.90;;;;;;4116725;28;20194;-95
2023/09/12 06:15:55;;;;;;;10.00;5.07;;;20.40;99.90;;;;;;4115864;28;20217;-95
2023/09/12 06:17:55;;;;;;;9.85;5.40;;;20.50;99.90;;;;;;4099857;28;20215;-82
2023/09/12 06:19:56;;;;;;;15.20;6.90;;;20.50;99.90;;;;;;4099824;29;20190;-82
2023/09/12 06:21:58;;;;;;;12.27;5.20;;;20.60;99.90;;;;;;4117295;28;20182;-83
2023/09/12 06:24:12;;;;;;;13.05;5.90;;;20.70;99.90;;;;;;4099589;28;20297;-93
2023/09/12 06:26:13;;;;;;;14.57;6.03;;;21.00;99.90;;;;;;4115479;28;20185;-83
2023/09/12 06:28:25;;;;;;;9.80;5.57;;;21.10;99.90;;;;;;4115422;28;20182;-82
2023/09/12 06:30:25;;;;;;;11.52;5.13;;;21.20;99.90;;;;;;4117101;28;20237;-82
2023/09/12 06:32:26;;;;;;;11.45;5.28;;;21.20;99.90;;;;;;4115656;28;20186;-82
2023/09/12 06:34:27;;;;;;;12.65;6.18;;;21.20;99.90;;;;;;4117057;28;20171;-82
2023/09/12 06:36:29;;;;;;;7.50;4.30;;;21.30;99.90;;;;;;4115525;28;20314;-82
2023/09/12 06:38:30;;;;;;;11.38;5.40;;;21.40;99.90;;;;;;4099883;28;20756;-95
2023/09/12 06:40:30;;;;;;;10.77;4.78;;;21.40;99.90;;;;;;4100015;29;20186;-82
2023/09/12 06:42:31;;;;;;;10.02;5.05;;;21.50;99.90;;;;;;4099443;29;20199;-82
2023/09/12 06:44:32;;;;;;;11.82;5.45;;;21.60;99.90;;;;;;4115229;28;20684;-83
2023/09/12 06:46:35;;;;;;;12.07;5.50;;;21.60;99.90;;;;;;4116715;28;20178;-82
2023/09/12 06:48:36;;;;;;;12.00;5.47;;;21.80;99.90;;;;;;4115747;28;20185;-82
2023/09/12 06:50:37;;;;;;;12.43;5.20;;;21.90;99.90;;;;;;4115345;28;20632;-82
2023/09/12 06:52:38;;;;;;;13.45;5.43;;;22.00;99.90;;;;;;4115358;28;20673;-82
2023/09/12 06:54:39;;;;;;;12.00;5.32;;;21.70;99.90;;;;;;4116615;28;20174;-82
2023/09/12 06:56:42;;;;;;;11.55;4.97;;;21.70;99.90;;;;;;4116578;28;20179;-83
2023/09/12 06:58:43;;;;;;;11.38;5.05;;;21.60;99.90;;;;;;4115109;28;20743;-82
2023/09/12 07:00:43;;;;;;;12.93;5.78;;;21.50;99.90;;;;;;4116719;28;20174;-83
2023/09/12 07:02:44;;;;;;;14.10;5.25;;;21.60;99.90;;;;;;4116600;28;20288;-82
2023/09/12 07:04:45;;;;;;;11.40;5.03;;;21.60;99.90;;;;;;4116249;28;20183;-89
2023/09/12 07:06:46;;;;;;;11.48;4.85;;;21.40;99.90;;;;;;4100211;28;20186;-82
2023/09/12 07:08:46;;;;;;;12.23;5.20;;;21.40;99.90;;;;;;4117580;28;20190;-84
2023/09/12 07:10:47;;;;;;;10.23;4.93;;;21.20;99.90;;;;;;4116241;28;20206;-83
2023/09/12 07:12:48;;;;;;;10.50;5.15;;;21.30;99.90;;;;;;4100946;28;20206;-95
2023/09/12 07:14:50;;;;;;;13.27;5.63;;;21.40;99.90;;;;;;4102819;29;20234;-84
2023/09/12 07:16:51;;;;;;;8.98;4.78;;;21.50;99.90;;;;;;4118296;28;20240;-83
2023/09/12 07:18:52;;;;;;;10.07;4.60;;;21.30;99.90;;;;;;4101322;28;20219;-82
2023/09/12 07:21:04;;;;;;;12.50;4.82;;;21.60;99.90;;;;;;4117000;28;20189;-82
2023/09/12 07:23:05;;;;;;;12.15;5.20;;;21.60;99.90;;;;;;4115675;28;20204;-81
2023/09/12 07:25:07;;;;;;;9.95;4.90;;;21.80;99.90;;;;;;4119941;28;20174;-85
2023/09/12 07:27:07;;;;;;;12.50;5.43;;;22.00;99.90;;;;;;4119232;28;20182;-82
2023/09/12 07:29:08;;;;;;;14.05;4.63;;;22.10;99.90;;;;;;4121620;28;20213;-87
2023/09/12 07:31:09;;;;;;;10.68;4.57;;;22.30;99.90;;;;;;4105225;28;20186;-83
2023/09/12 07:33:10;;;;;;;11.30;4.95;;;22.40;99.90;;;;;;4122579;28;20206;-84
2023/09/12 07:35:11;;;;;;;8.10;4.57;;;22.30;99.90;;;;;;4124479;28;20206;-84
2023/09/12 07:37:12;;;;;;;10.10;4.60;;;22.20;99.90;;;;;;4108672;28;20187;-88
2023/09/12 07:39:12;;;;;;;15.40;5.38;;;22.30;99.90;;;;;;4123965;28;20201;-84
2023/09/12 07:41:16;;;;;;;9.68;4.70;;;22.20;99.90;;;;;;4128537;28;20158;-84
2023/09/12 07:43:17;;;;;;;11.63;4.88;;;22.10;99.90;;;;;;4125514;28;20250;-83
2023/09/12 07:45:17;;;;;;;9.93;4.45;;;21.80;99.90;;;;;;4128474;28;20177;-87
2023/09/12 07:47:19;;;;;;;14.63;5.05;;;21.90;99.90;;;;;;4124771;28;20178;-85
2023/09/12 07:49:19;;;;;;;10.55;5.40;;;21.90;99.90;;;;;;4127998;28;20186;-84
2023/09/12 07:51:23;;;;;;;12.52;5.68;;;22.00;99.90;;;;;;4124942;28;20173;-88
2023/09/12 07:53:44;;;;;;;11.93;5.78;;;22.20;99.90;;;;;;4127595;28;20230;-86
2023/09/12 07:55:48;;;;;;;11.68;6.35;;;22.10;99.90;;;;;;4113031;29;20176;-95
2023/09/12 07:57:50;;;;;;;12.27;5.40;;;22.30;99.90;;;;;;4129442;28;20217;-88
2023/09/12 07:59:51;;;;;;;10.90;5.38;;;22.50;99.90;;;;;;4110425;28;20266;-89
2023/09/12 08:01:54;;;;;;;13.90;5.63;;;22.80;99.90;;;;;;4128545;28;20194;-84
2023/09/12 08:03:58;;;;;;;13.02;4.75;;;23.10;99.90;;;;;;4116474;28;20756;-84
2023/09/12 08:05:58;;;;;;;11.32;5.30;;;23.60;99.90;;;;;;4128513;28;20194;-84
2023/09/12 08:08:00;;;;;;;14.85;5.15;;;24.30;99.90;;;;;;4132707;28;20220;-93
2023/09/12 08:10:01;;;;;;;13.85;5.07;;;24.70;99.90;;;;;;4128979;28;20193;-84
2023/09/12 08:12:02;;;;;;;14.35;5.70;;;24.70;99.90;;;;;;4119293;28;20179;-86
2023/09/12 08:14:03;;;;;;;12.45;5.70;;;24.50;99.90;;;;;;4133225;28;20203;-85
2023/09/12 08:16:04;;;;;;;12.23;5.93;;;24.30;99.90;;;;;;4133496;28;20178;-92
2023/09/12 08:18:05;;;;;;;11.23;5.68;;;24.90;99.90;;;;;;4132892;28;20228;-90
2023/09/12 08:20:26;;;;;;;14.98;5.30;;;25.40;99.90;;;;;;4134513;28;20265;-86
2023/09/12 08:22:27;;;;;;;12.77;5.32;;;26.00;99.90;;;;;;4132257;28;20254;-85
2023/09/12 08:24:28;;;;;;;15.60;6.47;;;26.00;99.90;;;;;;4116478;28;20238;-86
2023/09/12 08:26:29;;;;;;;9.90;5.45;;;26.10;99.90;;;;;;4132153;28;20259;-84
2023/09/12 08:28:30;;;;;;;15.65;7.25;;;26.40;99.90;;;;;;4132114;28;20163;-89
2023/09/12 08:30:30;;;;;;;10.32;5.63;;;26.50;99.90;;;;;;4128485;28;20200;-83
2023/09/12 08:32:31;;;;;;;10.48;5.78;;;27.00;99.90;;;;;;4128051;28;20210;-90
2023/09/12 08:34:32;;;;;;;12.48;6.63;;;27.30;99.90;;;;;;4112272;29;20210;-92
2023/09/12 08:36:34;;;;;;;13.55;5.65;;;27.60;99.90;;;;;;4129183;28;20215;-92
2023/09/12 08:38:35;;;;;;;9.05;5.07;;;28.10;99.90;;;;;;4128142;28;20294;-82
2023/09/12 08:40:36;;;;;;;11.88;4.45;;;28.80;99.90;;;;;;4128972;28;20186;-91
2023/09/12 08:42:42;;;;;;;16.35;7.40;;;29.60;99.90;;;;;;4128830;28;20198;-82
2023/09/12 08:44:43;;;;;;;14.05;5.10;;;29.70;99.90;;;;;;4128855;28;20174;-92
2023/09/12 08:46:45;;;;;;;11.30;5.53;;;30.00;99.90;;;;;;4129139;28;20182;-94
2023/09/12 08:48:46;;;;;;;11.02;5.57;;;30.60;99.90;;;;;;4130781;28;20246;-94
2023/09/12 08:50:49;;;;;;;11.48;6.00;;;30.60;99.90;;;;;;4130514;28;20190;-82
2023/09/12 08:52:50;;;;;;;12.60;6.10;;;31.00;99.90;;;;;;4108653;28;20213;-86
2023/09/12 08:54:51;;;;;;;10.48;6.00;;;30.90;99.90;;;;;;4126437;28;20768;-88
2023/09/12 08:57:12;;;;;;;10.23;5.22;;;30.10;99.90;;;;;;4128148;28;20170;-92
2023/09/12 08:59:14;;;;;;;13.80;6.00;;;30.10;99.90;;;;;;4110292;28;20202;-92
2023/09/12 09:01:17;;;;;;;9.57;5.60;;;30.00;99.90;;;;;;4109414;28;20183;-96
2023/09/12 09:03:20;;;;;;;11.20;5.95;;;29.30;99.90;;;;;;4128352;28;20225;-82
2023/09/12 09:05:24;;;;;;;12.27;6.28;;;29.40;99.90;;;;;;4123255;28;20245;-89
2023/09/12 09:07:26;;;;;;;9.43;4.95;;;28.60;99.90;;;;;;4125385;28;20654;-91
2023/09/12 09:09:30;;;;;;;10.10;4.95;;;28.50;99.90;;;;;;4110413;28;20182;-86
2023/09/12 09:11:31;;;;;;;12.57;5.25;;;28.60;99.90;;;;;;4125347;28;20200;-83
2023/09/12 09:13:32;;;;;;;17.20;6.07;;;28.70;99.90;;;;;;4128950;28;20230;-82
2023/09/12 09:15:33;;;;;;;10.57;4.85;;;29.00;99.90;;;;;;4121394;28;20197;-82
2023/09/12 09:17:34;;;;;;;12.45;5.25;;;29.40;99.90;;;;;;4125759;28;20735;-95
2023/09/12 09:19:42;;;;;;;11.50;5.40;;;29.40;99.90;;;;;;4120746;28;20186;-82
2023/09/12 09:21:42;;;;;;;14.32;5.13;;;29.20;99.90;;;;;;4125595;28;20177;-87
2023/09/12 09:23:47;;;;;;;12.10;5.22;;;29.20;99.90;;;;;;4110782;29;20202;-92
2023/09/12 09:25:53;;;;;;;11.55;5.47;;;29.20;99.90;;;;;;4125609;28;20182;-88
2023/09/12 09:27:54;;;;;;;8.38;4.93;;;28.60;99.90;;;;;;4108128;29;20249;-82
2023/09/12 09:29:55;;;;;;;8.80;4.25;;;28.80;99.90;;;;;;4125599;28;20178;-94
2023/09/12 09:31:56;;;;;;;9.55;5.22;;;29.00;99.90;;;;;;4124930;28;20189;-83
2023/09/12 09:33:58;;;;;;;9.68;4.43;;;29.40;99.90;;;;;;4124937;28;20198;-90
2023/09/12 09:36:07;;;;;;;11.55;5.22;;;30.20;99.90;;;;;;4125542;28;20270;-82
2023/09/12 09:38:09;;;;;;;10.32;4.75;;;30.70;99.90;;;;;;4124466;28;20221;-81
2023/09/12 09:40:11;;;;;;;8.77;4.18;;;30.60;99.90;;;;;;4125832;28;20190;-83
2023/09/12 09:42:12;;;;;;;7.35;3.85;;;30.80;99.90;;;;;;4125407;28;20264;-87
2023/09/12 09:44:13;;;;;;;7.70;3.55;;;31.20;99.90;;;;;;4127328;28;20189;-94
2023/09/12 09:46:18;;;;;;;6.35;3.30;;;31.60;99.90;;;;;;4125719;28;20181;-83
2023/09/12 09:48:24;;;;;;;6.72;4.10;;;31.90;99.90;;;;;;4106938;28;20185;-82
2023/09/12 09:50:26;;;;;;;6.05;3.95;;;32.20;99.90;;;;;;4126192;28;20237;-87
2023/09/12 09:52:27;;;;;;;9.70;3.95;;;32.30;99.90;;;;;;4122891;28;20178;-84
2023/09/12 09:54:30;;;;;;;5.57;3.22;;;31.90;99.90;;;;;;4124457;28;20202;-92
2023/09/12 09:56:32;;;;;;;7.85;3.20;;;31.40;99.90;;;;;;4126591;28;20178;-83
2023/09/12 09:58:32;;;;;;;5.90;3.28;;;31.30;99.90;;;;;;4127687;28;20281;-93
2023/09/12 10:00:36;;;;;;;6.68;3.95;;;31.40;99.90;;;;;;4124780;28;20213;-93
2023/09/12 10:02:39;;;;;;;8.02;3.72;;;31.40;99.90;;;;;;4122883;28;20220;-82
2023/09/12 10:04:41;;;;;;;9.23;3.75;;;30.90;99.90;;;;;;4119813;28;20632;-83
2023/09/12 10:06:44;;;;;;;13.07;4.88;;;30.60;99.90;;;;;;4119887;28;20225;-93
2023/09/12 10:08:50;;;;;;;12.65;4.93;;;30.10;99.90;;;;;;4120456;28;20189;-90
2023/09/12 10:10:52;;;;;;;8.90;4.60;;;29.60;99.90;;;;;;4121382;28;20182;-94
2023/09/12 10:13:03;;;;;;;9.40;5.68;;;29.30;99.90;;;;;;4125431;28;20210;-82
2023/09/12 10:15:05;;;;;;;9.27;4.45;;;29.30;99.90;;;;;;4104370;28;20235;-82
2023/09/12 10:17:07;;;;;;;9.82;4.93;;;29.10;99.90;;;;;;4105653;28;20535;-82
2023/09/12 10:19:19;;;;;;;7.30;4.03;;;29.10;99.90;;;;;;4103844;29;20211;-93
2023/09/12 10:21:27;;;;;;;6.35;2.97;;;28.60;99.90;;;;;;4119765;28;20313;-93
2023/09/12 10:23:36;;;;;;;11.50;3.42;;;28.00;99.90;;;;;;4116265;28;20563;-82
2023/09/12 10:25:38;;;;;;;6.93;3.50;;;27.60;99.90;;;;;;4118043;28;20230;-82
2023/09/12 10:27:39;;;;;;;7.07;3.45;;;27.50;99.90;;;;;;4100845;28;20191;-82